createdAt,value
2023-01-26T00:01:46.250Z,42.70
2023-01-26T00:04:14.248Z,41.67
2023-01-26T00:06:42.258Z,43.47
2023-01-26T00:09:15.552Z,41.88
2023-01-26T00:11:43.748Z,41.60
2023-01-26T00:14:11.640Z,40.25
2023-01-26T00:16:40.331Z,37.15
2023-01-26T00:19:09.338Z,44.13
2023-01-26T00:21:37.231Z,41.92
2023-01-26T00:24:05.748Z,40.28
2023-01-26T00:26:33.771Z,40.03
2023-01-26T00:29:02.554Z,37.67
2023-01-26T00:31:30.617Z,35.55
2023-01-26T00:34:00.672Z,39.42
2023-01-26T00:36:29.618Z,42.35
2023-01-26T00:38:57.846Z,37.28
2023-01-26T00:41:46.870Z,40.08
2023-01-26T00:44:16.654Z,39.15
2023-01-26T00:46:44.589Z,45.05
2023-01-26T00:49:12.496Z,40.65
2023-01-26T00:51:40.411Z,38.97
2023-01-26T00:54:08.304Z,37.22
2023-01-26T00:56:37.434Z,34.35
2023-01-26T00:59:07.038Z,41.25
2023-01-26T01:01:34.923Z,34.72
2023-01-26T01:04:02.839Z,35.28
2023-01-26T01:06:30.753Z,35.55
2023-01-26T01:08:58.694Z,39.42
2023-01-26T01:11:26.589Z,37.75
2023-01-26T01:13:54.503Z,31.38
2023-01-26T01:16:22.516Z,36.50
2023-01-26T01:18:54.864Z,38.25
2023-01-26T01:21:24.197Z,35.08
2023-01-26T01:26:22.422Z,39.05
2023-01-26T01:28:50.788Z,38.50
2023-01-26T01:31:18.751Z,36.47
2023-01-26T01:33:46.747Z,35.30
2023-01-26T01:36:17.287Z,37.90
2023-01-26T01:38:46.877Z,40.47
2023-01-26T01:41:17.068Z,36.15
2023-01-26T01:43:46.371Z,36.42
2023-01-26T01:46:41.329Z,35.97
2023-01-26T01:49:25.074Z,34.45
2023-01-26T01:52:11.365Z,40.17
2023-01-26T01:54:47.135Z,36.25
2023-01-26T01:57:28.740Z,38.00
2023-01-26T02:00:13.415Z,35.17
2023-01-26T02:02:45.303Z,35.28
2023-01-26T02:05:33.635Z,31.95
2023-01-26T02:08:02.685Z,33.75
2023-01-26T02:10:31.771Z,32.85
2023-01-26T02:13:01.899Z,32.65
2023-01-26T02:15:31.769Z,30.52
2023-01-26T02:18:04.963Z,32.20
2023-01-26T02:20:45.275Z,29.05
2023-01-26T02:23:32.942Z,27.60
2023-01-26T02:26:14.979Z,29.25
2023-01-26T02:28:44.995Z,27.58
2023-01-26T02:31:14.386Z,28.88
2023-01-26T02:33:43.901Z,29.00
2023-01-26T02:36:30.467Z,29.60
2023-01-26T02:39:24.971Z,28.25
2023-01-26T02:42:12.277Z,27.42
2023-01-26T02:44:43.140Z,26.98
2023-01-26T02:47:17.937Z,31.85
2023-01-26T02:49:54.011Z,29.77
2023-01-26T02:52:26.856Z,33.00
2023-01-26T02:55:25.950Z,30.67
2023-01-26T02:57:56.269Z,29.08
2023-01-26T03:00:26.697Z,30.13
2023-01-26T03:02:57.687Z,30.60
2023-01-26T03:05:28.156Z,29.40
2023-01-26T03:07:56.928Z,25.02
2023-01-26T03:10:30.718Z,26.88
2023-01-26T03:12:58.716Z,26.52
2023-01-26T03:15:53.390Z,27.25
2023-01-26T03:18:43.116Z,27.73
2023-01-26T03:21:33.410Z,25.38
2023-01-26T03:24:20.947Z,24.52
2023-01-26T03:27:08.990Z,26.90
2023-01-26T03:29:40.523Z,24.67
2023-01-26T03:32:08.471Z,26.80
2023-01-26T03:34:36.600Z,25.80
2023-01-26T03:37:06.140Z,27.13
2023-01-26T03:40:03.317Z,27.58
2023-01-26T03:42:50.295Z,22.55
2023-01-26T03:45:36.780Z,24.55
2023-01-26T03:48:25.195Z,24.25
2023-01-26T03:51:11.667Z,24.60
2023-01-26T03:54:01.508Z,23.85
2023-01-26T03:56:33.497Z,22.33
2023-01-26T03:59:09.684Z,21.85
2023-01-26T04:01:42.255Z,26.73
2023-01-26T04:04:30.619Z,23.70
2023-01-26T04:07:17.192Z,25.85
2023-01-26T04:09:50.444Z,28.05
2023-01-26T04:12:18.395Z,28.02
2023-01-26T04:15:17.194Z,28.13
2023-01-26T04:18:03.682Z,25.48
2023-01-26T04:20:50.145Z,25.77
2023-01-26T04:23:21.322Z,29.45
2023-01-26T04:25:54.535Z,27.00
2023-01-26T04:28:24.988Z,28.80
2023-01-26T04:30:53.277Z,29.83
2023-01-26T04:33:21.526Z,26.17
2023-01-26T04:35:50.498Z,29.33
2023-01-26T04:38:18.476Z,26.13
2023-01-26T04:40:46.441Z,23.17
2023-01-26T04:43:14.371Z,27.38
2023-01-26T04:45:42.800Z,27.85
2023-01-26T04:48:10.739Z,24.80
2023-01-26T04:50:38.769Z,24.73
2023-01-26T04:53:07.130Z,25.95
2023-01-26T04:55:35.032Z,27.02
2023-01-26T04:58:03.942Z,26.25
2023-01-26T05:00:32.143Z,24.08
2023-01-26T05:03:01.348Z,24.88
2023-01-26T05:05:29.735Z,30.08
2023-01-26T05:07:57.702Z,38.38
2023-01-26T05:10:28.207Z,41.70
2023-01-26T05:13:17.892Z,41.65
2023-01-26T05:16:08.117Z,38.25
2023-01-26T05:18:47.169Z,38.60
2023-01-26T05:21:38.159Z,43.50
2023-01-26T05:24:07.387Z,39.80
2023-01-26T05:27:10.368Z,40.90
2023-01-26T05:29:43.034Z,46.30
2023-01-26T05:32:11.022Z,42.78
2023-01-26T05:34:39.132Z,38.53
2023-01-26T05:37:07.630Z,49.92
2023-01-26T05:39:36.748Z,43.28
2023-01-26T05:42:06.820Z,41.35
2023-01-26T05:44:55.071Z,42.00
2023-01-26T05:47:24.183Z,40.40
2023-01-26T05:49:52.849Z,36.40
2023-01-26T05:52:27.776Z,45.67
2023-01-26T05:54:55.751Z,41.80
2023-01-26T05:57:24.930Z,49.70
2023-01-26T06:00:00.047Z,45.00
2023-01-26T06:02:28.468Z,46.17
2023-01-26T06:04:56.715Z,45.33
2023-01-26T06:07:24.640Z,36.75
2023-01-26T06:10:11.301Z,33.22
2023-01-26T06:13:08.757Z,37.10
2023-01-26T06:15:45.112Z,31.33
2023-01-26T06:18:13.604Z,34.63
2023-01-26T06:20:49.220Z,33.15
2023-01-26T06:23:17.230Z,35.85
2023-01-26T06:25:46.893Z,37.20
2023-01-26T06:28:15.098Z,34.88
2023-01-26T06:30:43.914Z,34.97
2023-01-26T06:33:13.672Z,32.88
2023-01-26T06:35:44.211Z,34.03
2023-01-26T06:38:16.693Z,35.35
2023-01-26T06:40:45.607Z,31.88
2023-01-26T06:43:13.538Z,35.83
2023-01-26T06:45:43.165Z,33.95
2023-01-26T06:48:11.235Z,35.13
2023-01-26T06:50:41.293Z,33.90
2023-01-26T06:53:27.418Z,28.27
2023-01-26T06:56:22.383Z,30.85
2023-01-26T06:59:00.477Z,36.72
2023-01-26T07:01:52.444Z,36.05
2023-01-26T07:04:20.367Z,33.70
2023-01-26T07:06:48.256Z,34.33
2023-01-26T07:09:16.203Z,40.13
2023-01-26T07:11:44.162Z,35.75
2023-01-26T07:14:12.086Z,35.92
2023-01-26T07:16:40.067Z,32.95
2023-01-26T07:19:08.996Z,35.72
2023-01-26T07:21:37.233Z,34.47
2023-01-26T07:24:05.462Z,33.60
2023-01-26T07:26:33.391Z,34.17
2023-01-26T07:29:01.356Z,36.28
2023-01-26T07:31:29.375Z,31.33
2023-01-26T07:33:57.392Z,35.25
2023-01-26T07:36:25.318Z,28.90
2023-01-26T07:38:53.236Z,34.95
2023-01-26T07:41:21.177Z,34.30
2023-01-26T07:43:51.125Z,39.20
2023-01-26T07:46:20.438Z,35.42
2023-01-26T07:48:48.380Z,32.55
2023-01-26T07:51:16.286Z,37.67
2023-01-26T07:53:45.134Z,37.63
2023-01-26T07:56:15.600Z,32.30
2023-01-26T07:58:43.849Z,32.50
2023-01-26T08:01:14.376Z,29.58
2023-01-26T08:03:43.240Z,33.53
2023-01-26T08:06:13.139Z,32.03
2023-01-26T08:08:42.999Z,31.85
2023-01-26T08:11:15.835Z,27.17
2023-01-26T08:13:48.037Z,26.50
2023-01-26T08:16:16.242Z,27.83
2023-01-26T08:18:46.346Z,27.42
2023-01-26T08:21:15.914Z,25.85
2023-01-26T08:23:44.207Z,23.63
2023-01-26T08:26:14.595Z,21.83
2023-01-26T08:28:42.718Z,22.70
2023-01-26T08:31:13.455Z,27.67
2023-01-26T08:33:43.443Z,25.48
2023-01-26T08:36:14.623Z,24.40
2023-01-26T08:38:43.384Z,17.77
2023-01-26T08:41:12.089Z,17.70
2023-01-26T08:43:40.433Z,19.77
2023-01-26T08:46:08.798Z,20.05
2023-01-26T08:48:37.032Z,18.35
2023-01-26T08:51:06.483Z,21.70
2023-01-26T08:53:35.972Z,20.48
2023-01-26T08:56:08.638Z,18.58
2023-01-26T08:58:37.559Z,19.83
2023-01-26T09:01:16.508Z,21.58
2023-01-26T09:03:45.712Z,24.42
2023-01-26T09:06:15.741Z,24.08
2023-01-26T09:08:43.689Z,25.60
2023-01-26T09:11:11.994Z,23.52
2023-01-26T09:13:44.217Z,23.27
2023-01-26T09:16:21.041Z,20.27
2023-01-26T09:18:53.194Z,17.45
2023-01-26T09:21:21.992Z,22.00
2023-01-26T09:23:49.873Z,20.20
2023-01-26T09:26:17.832Z,19.25
2023-01-26T09:28:45.767Z,19.02
2023-01-26T09:31:13.967Z,21.00
2023-01-26T09:33:44.057Z,21.08
2023-01-26T09:36:13.472Z,22.27
2023-01-26T09:38:41.588Z,24.58
2023-01-26T09:41:31.278Z,26.92
2023-01-26T09:44:05.553Z,25.45
2023-01-26T09:47:08.314Z,25.65
2023-01-26T09:49:49.426Z,23.40
2023-01-26T09:52:28.710Z,23.67
2023-01-26T09:55:00.492Z,20.27
2023-01-26T09:57:48.950Z,23.40
2023-01-26T10:00:29.735Z,21.63
2023-01-26T10:03:34.235Z,28.02
2023-01-26T10:06:25.165Z,24.52
2023-01-26T10:09:22.596Z,20.42
2023-01-26T10:11:55.930Z,23.90
2023-01-26T10:14:34.863Z,21.67
2023-01-26T10:17:06.252Z,22.38
2023-01-26T10:19:45.284Z,20.30
2023-01-26T10:22:23.507Z,23.27
2023-01-26T10:25:00.630Z,24.48
2023-01-26T10:27:30.564Z,29.83
2023-01-26T10:29:58.479Z,29.42
2023-01-26T10:32:26.860Z,27.48
2023-01-26T10:34:55.202Z,26.98
2023-01-26T10:37:30.790Z,28.35
2023-01-26T10:40:05.167Z,27.73
2023-01-26T10:42:35.123Z,28.90
2023-01-26T10:45:24.216Z,27.77
2023-01-26T10:48:17.301Z,28.02
2023-01-26T10:50:46.193Z,26.80
2023-01-26T10:53:25.871Z,25.95
2023-01-26T10:56:16.019Z,26.92
2023-01-26T10:58:47.060Z,27.23
2023-01-26T11:01:17.619Z,28.65
2023-01-26T11:04:01.542Z,26.38
2023-01-26T11:06:34.207Z,24.25
2023-01-26T11:09:19.277Z,27.63
2023-01-26T11:12:07.126Z,31.33
2023-01-26T11:14:35.864Z,31.83
2023-01-26T11:17:26.286Z,34.58
2023-01-26T11:20:15.896Z,27.98
2023-01-26T11:22:56.630Z,27.90
2023-01-26T11:25:33.426Z,27.48
2023-01-26T11:28:17.388Z,28.23
2023-01-26T11:31:05.786Z,25.15
2023-01-26T11:33:45.736Z,29.42
2023-01-26T11:36:35.541Z,29.70
2023-01-26T11:39:29.772Z,30.60
2023-01-26T11:42:31.107Z,25.30
2023-01-26T11:45:19.231Z,23.35
2023-01-26T11:48:14.315Z,26.33
2023-01-26T11:51:06.978Z,27.10
2023-01-26T11:53:40.577Z,21.38
2023-01-26T11:56:21.011Z,26.38
2023-01-26T11:59:01.358Z,27.38
2023-01-26T12:01:47.387Z,28.83
2023-01-26T12:04:23.778Z,30.20
2023-01-26T12:07:07.822Z,26.90
2023-01-26T12:09:49.581Z,27.50
2023-01-26T12:12:44.464Z,24.25
2023-01-26T12:15:18.683Z,22.27
2023-01-26T12:18:06.614Z,24.00
2023-01-26T12:20:42.373Z,25.95
2023-01-26T12:23:10.205Z,25.70
2023-01-26T12:25:46.128Z,24.10
2023-01-26T12:28:38.373Z,29.88
2023-01-26T12:31:21.913Z,26.98
2023-01-26T12:33:53.229Z,29.80
2023-01-26T12:39:01.604Z,30.42
2023-01-26T12:41:56.269Z,29.27
2023-01-26T12:44:33.511Z,27.50
2023-01-26T12:47:06.326Z,30.08
2023-01-26T12:49:50.934Z,29.80
2023-01-26T12:52:24.735Z,28.08
2023-01-26T12:55:11.247Z,32.10
2023-01-26T12:57:45.330Z,29.63
2023-01-26T13:00:30.854Z,29.15
2023-01-26T13:03:05.624Z,31.85
2023-01-26T13:05:37.094Z,36.95
2023-01-26T13:08:33.061Z,36.25
2023-01-26T13:11:07.668Z,31.48
2023-01-26T13:13:56.886Z,32.65
2023-01-26T13:16:24.745Z,32.58
2023-01-26T13:18:57.256Z,35.10
2023-01-26T13:21:37.181Z,32.55
2023-01-26T13:24:25.128Z,34.78
2023-01-26T13:26:58.679Z,36.67
2023-01-26T13:29:26.552Z,27.85
2023-01-26T13:31:56.209Z,28.13
2023-01-26T13:34:46.520Z,30.63
2023-01-26T13:37:39.867Z,26.83
2023-01-26T13:40:20.211Z,32.35
2023-01-26T13:42:56.944Z,31.83
2023-01-26T13:45:34.920Z,28.65
2023-01-26T13:48:06.333Z,28.25
2023-01-26T13:50:41.719Z,28.10
2023-01-26T13:53:34.517Z,27.38
2023-01-26T13:56:04.563Z,23.50
2023-01-26T13:58:33.190Z,24.63
2023-01-26T14:01:07.638Z,24.85
2023-01-26T14:03:35.756Z,21.52
2023-01-26T14:06:06.398Z,24.95
2023-01-26T14:08:34.626Z,26.17
2023-01-26T14:11:05.600Z,26.23
2023-01-26T14:13:40.124Z,21.52
2023-01-26T14:16:09.211Z,26.60
2023-01-26T14:18:37.206Z,23.38
2023-01-26T14:21:18.324Z,25.63
2023-01-26T14:23:46.271Z,26.75
2023-01-26T14:26:22.155Z,24.20
2023-01-26T14:28:50.127Z,24.38
2023-01-26T14:31:24.568Z,21.85
2023-01-26T14:33:58.452Z,22.73
2023-01-26T14:36:29.339Z,23.83
2023-01-26T14:38:57.940Z,26.13
2023-01-26T14:41:35.395Z,23.65
2023-01-26T14:44:05.118Z,26.95
2023-01-26T14:46:54.289Z,25.80
2023-01-26T14:49:43.998Z,28.80
2023-01-26T14:52:25.321Z,24.08
2023-01-26T14:55:09.870Z,29.02
2023-01-26T14:57:37.890Z,27.92
2023-01-26T15:00:11.273Z,29.05
2023-01-26T15:02:45.137Z,27.58
2023-01-26T15:05:22.543Z,29.08
2023-01-26T15:08:03.931Z,31.67
2023-01-26T15:13:11.120Z,22.92
2023-01-26T15:15:49.556Z,28.30
2023-01-26T15:18:21.939Z,39.35
2023-01-26T15:21:21.218Z,42.03
2023-01-26T15:23:54.157Z,46.50
2023-01-26T15:26:32.282Z,39.40
2023-01-26T15:29:04.388Z,35.25
2023-01-26T15:31:43.684Z,33.85
2023-01-26T15:34:33.255Z,31.38
2023-01-26T15:37:02.617Z,26.13
2023-01-26T15:39:31.345Z,28.73
2023-01-26T15:42:29.000Z,29.30
2023-01-26T15:44:58.452Z,27.00
2023-01-26T15:47:26.936Z,28.98
2023-01-26T15:49:54.859Z,28.48
2023-01-26T15:52:26.908Z,27.15
2023-01-26T15:54:55.098Z,26.08
2023-01-26T15:57:23.106Z,28.67
2023-01-26T15:59:51.058Z,27.40
2023-01-26T16:02:21.251Z,28.50
2023-01-26T16:04:49.765Z,27.77
2023-01-26T16:07:19.680Z,28.17
2023-01-26T16:09:49.873Z,33.88
2023-01-26T16:12:30.872Z,32.95
2023-01-26T16:15:00.424Z,29.67
2023-01-26T16:17:28.877Z,32.58
2023-01-26T16:19:56.779Z,28.10
2023-01-26T16:22:24.704Z,44.67
2023-01-26T16:24:55.835Z,42.35
2023-01-26T16:27:23.924Z,32.08
2023-01-26T16:29:58.262Z,57.95
2023-01-26T16:32:30.551Z,48.75
2023-01-26T16:34:58.565Z,29.23
2023-01-26T16:37:26.532Z,29.85
2023-01-26T16:39:54.465Z,25.13
2023-01-26T16:42:22.878Z,25.20
2023-01-26T16:44:51.183Z,25.27
2023-01-26T16:47:19.051Z,27.17
2023-01-26T16:49:46.983Z,28.58
2023-01-26T16:52:14.906Z,32.83
2023-01-26T16:54:42.862Z,30.05
2023-01-26T16:57:10.775Z,33.88
2023-01-26T16:59:38.702Z,29.73
2023-01-26T17:02:06.769Z,32.28
2023-01-26T17:04:34.754Z,32.75
2023-01-26T17:07:02.722Z,32.03
2023-01-26T17:09:31.251Z,30.17
2023-01-26T17:11:59.103Z,30.40
2023-01-26T17:14:28.385Z,31.73
2023-01-26T17:16:56.277Z,36.35
2023-01-26T17:19:24.258Z,38.85
2023-01-26T17:21:52.347Z,32.80
2023-01-26T17:24:20.365Z,31.55
2023-01-26T17:26:48.342Z,25.60
2023-01-26T17:29:16.264Z,26.02
2023-01-26T17:31:45.045Z,29.38
2023-01-26T17:34:13.117Z,26.15
2023-01-26T17:36:40.966Z,31.33
2023-01-26T17:39:10.929Z,28.90
2023-01-26T17:41:39.053Z,27.35
2023-01-26T17:47:20.227Z,27.17
2023-01-26T17:49:51.514Z,26.77
2023-01-26T17:52:21.351Z,25.13
2023-01-26T17:54:49.543Z,26.17
2023-01-26T17:57:17.458Z,26.73
2023-01-26T17:59:45.451Z,27.63
2023-01-26T18:02:13.552Z,27.05
2023-01-26T18:04:41.458Z,26.98
2023-01-26T18:07:09.371Z,27.00
2023-01-26T18:09:37.266Z,24.08
2023-01-26T18:12:05.351Z,26.02
2023-01-26T18:14:33.243Z,29.35
2023-01-26T18:17:01.124Z,25.05
2023-01-26T18:19:29.092Z,24.35
2023-01-26T18:21:57.050Z,28.20
2023-01-26T18:24:25.003Z,26.67
2023-01-26T18:26:52.975Z,25.13
2023-01-26T18:29:20.860Z,24.55
2023-01-26T18:31:49.237Z,21.15
2023-01-26T18:34:17.266Z,18.58
2023-01-26T18:36:45.156Z,19.65
2023-01-26T18:39:15.743Z,15.40
2023-01-26T18:41:44.449Z,16.35
2023-01-26T18:44:12.573Z,17.42
2023-01-26T18:46:40.652Z,14.98
2023-01-26T18:49:08.508Z,16.15
2023-01-26T18:51:37.093Z,19.10
2023-01-26T18:54:06.774Z,21.02
2023-01-26T18:56:34.832Z,18.73
2023-01-26T18:59:02.704Z,17.40
2023-01-26T19:01:30.697Z,17.13
2023-01-26T19:03:59.867Z,17.30
2023-01-26T19:06:29.568Z,17.90
2023-01-26T19:09:01.394Z,14.85
2023-01-26T19:11:34.422Z,16.35
2023-01-26T19:14:09.506Z,16.60
2023-01-26T19:16:38.109Z,17.92
2023-01-26T19:19:06.308Z,17.33
2023-01-26T19:21:34.444Z,18.10
2023-01-26T19:24:08.693Z,16.05
2023-01-26T19:26:36.740Z,16.35
2023-01-26T19:29:05.247Z,15.63
2023-01-26T19:31:33.812Z,16.00
2023-01-26T19:34:03.800Z,14.98
2023-01-26T19:36:33.557Z,15.13
2023-01-26T19:39:02.652Z,14.63
2023-01-26T19:41:31.167Z,15.27
2023-01-26T19:43:59.078Z,15.68
2023-01-26T19:46:26.983Z,20.40
2023-01-26T19:48:54.948Z,16.30
2023-01-26T19:51:25.969Z,16.00
2023-01-26T19:53:59.240Z,12.13
2023-01-26T19:56:30.431Z,12.63
2023-01-26T19:59:00.869Z,11.60
2023-01-26T20:01:30.619Z,14.17
2023-01-26T20:04:01.588Z,14.35
2023-01-26T20:06:33.071Z,10.65
2023-01-26T20:09:01.979Z,10.20
2023-01-26T20:11:30.785Z,10.50
2023-01-26T20:14:03.059Z,9.75
2023-01-26T20:16:31.930Z,10.18
2023-01-26T20:19:01.550Z,9.75
2023-01-26T20:21:30.423Z,8.57
2023-01-26T20:24:04.659Z,10.15
2023-01-26T20:26:33.139Z,9.35
2023-01-26T20:29:01.466Z,11.82
2023-01-26T20:31:29.757Z,10.55
2023-01-26T20:33:59.508Z,11.00
2023-01-26T20:36:29.665Z,9.13
2023-01-26T20:38:57.703Z,10.45
2023-01-26T20:41:30.053Z,10.57
2023-01-26T20:44:02.014Z,12.00
2023-01-26T20:46:33.551Z,10.95
2023-01-26T20:49:02.311Z,9.65
2023-01-26T20:51:36.737Z,12.80
2023-01-26T20:54:07.672Z,10.55
2023-01-26T20:56:36.697Z,12.20
2023-01-26T20:59:05.507Z,12.73
2023-01-26T21:01:37.536Z,12.05
2023-01-26T21:04:06.626Z,12.07
2023-01-26T21:06:34.973Z,11.60
2023-01-26T21:09:03.182Z,11.50
2023-01-26T21:11:32.378Z,12.05
2023-01-26T21:14:04.366Z,12.50
2023-01-26T21:16:37.212Z,13.05
2023-01-26T21:19:05.197Z,11.35
2023-01-26T21:21:33.331Z,12.73
2023-01-26T21:24:01.424Z,13.25
2023-01-26T21:26:33.943Z,12.07
2023-01-26T21:29:01.975Z,10.63
2023-01-26T21:31:32.693Z,11.73
2023-01-26T21:34:01.729Z,12.63
2023-01-26T21:36:31.938Z,13.05
2023-01-26T21:39:01.255Z,11.80
2023-01-26T21:41:50.823Z,11.50
2023-01-26T21:44:23.006Z,14.32
2023-01-26T21:46:55.227Z,11.48
2023-01-26T21:49:25.238Z,12.18
2023-01-26T21:52:20.972Z,11.95
2023-01-26T21:54:51.844Z,15.32
2023-01-26T21:57:39.265Z,14.32
2023-01-26T22:00:07.916Z,14.95
2023-01-26T22:02:35.830Z,14.13
2023-01-26T22:05:04.895Z,18.13
2023-01-26T22:07:35.809Z,18.67
2023-01-26T22:10:07.335Z,16.23
2023-01-26T22:12:36.745Z,13.82
2023-01-26T22:15:06.731Z,13.85
2023-01-26T22:17:34.882Z,13.27
2023-01-26T22:20:03.391Z,12.93
2023-01-26T22:22:32.375Z,11.32
2023-01-26T22:25:01.204Z,12.63
2023-01-26T22:27:34.549Z,13.98
2023-01-26T22:30:06.064Z,12.80
2023-01-26T22:32:38.082Z,13.70
2023-01-26T22:35:06.594Z,12.20
2023-01-26T22:37:35.619Z,13.90
2023-01-26T22:40:04.169Z,14.88
2023-01-26T22:42:32.393Z,12.40
2023-01-26T22:45:01.024Z,10.55
2023-01-26T22:47:30.549Z,13.60
2023-01-26T22:49:58.899Z,14.77
2023-01-26T22:52:30.041Z,14.18
2023-01-26T22:54:58.827Z,12.93
2023-01-26T22:57:27.357Z,14.07
2023-01-26T22:59:56.627Z,13.85
2023-01-26T23:02:25.147Z,12.98
2023-01-26T23:04:53.568Z,13.55
2023-01-26T23:07:21.496Z,12.35
2023-01-26T23:09:49.413Z,12.88
2023-01-26T23:12:17.666Z,13.70
2023-01-26T23:14:45.966Z,13.23
2023-01-26T23:17:14.066Z,17.50
2023-01-26T23:19:42.778Z,13.93
2023-01-26T23:22:10.671Z,16.55
2023-01-26T23:24:41.757Z,14.10
2023-01-26T23:29:38.755Z,18.63
2023-01-26T23:32:08.072Z,16.40
2023-01-26T23:34:42.115Z,17.92
2023-01-26T23:39:38.595Z,14.90
2023-01-26T23:42:06.585Z,16.73
2023-01-26T23:44:34.476Z,17.90
2023-01-26T23:47:02.470Z,16.58
2023-01-26T23:49:30.446Z,17.63
2023-01-26T23:51:58.387Z,16.77
2023-01-26T23:54:26.326Z,16.40
2023-01-26T23:56:54.239Z,17.15
2023-01-26T23:59:22.407Z,15.38
